createdAt,value
2019-05-17T00:00:47.493Z,7.12
2019-05-17T00:03:28.901Z,7.04
2019-05-17T00:06:03.020Z,6.99
2019-05-17T00:08:58.109Z,6.99
2019-05-17T00:15:27.318Z,6.93
2019-05-17T00:21:47.316Z,6.80
2019-05-17T00:24:23.745Z,6.81
2019-05-17T00:27:44.483Z,6.80
2019-05-17T00:33:28.945Z,6.63
2019-05-17T00:36:30.163Z,6.66
2019-05-17T00:39:09.094Z,6.61
2019-05-17T00:41:42.264Z,6.51
2019-05-17T00:44:16.818Z,6.52
2019-05-17T00:46:52.299Z,6.49
2019-05-17T00:49:26.780Z,6.42
2019-05-17T00:52:07.022Z,6.42
2019-05-17T00:54:46.961Z,6.42
2019-05-17T00:57:23.830Z,6.37
2019-05-17T01:02:51.714Z,6.38
2019-05-17T01:05:29.092Z,6.34
2019-05-17T01:08:06.898Z,6.34
2019-05-17T01:10:43.920Z,6.31
2019-05-17T01:13:21.011Z,6.29
2019-05-17T01:15:53.863Z,6.22
2019-05-17T01:18:31.697Z,6.21
2019-05-17T01:21:12.979Z,6.17
2019-05-17T01:23:51.141Z,6.18
2019-05-17T01:26:32.965Z,6.14
2019-05-17T01:29:06.732Z,6.07
2019-05-17T01:31:51.106Z,6.06
2019-05-17T01:34:17.139Z,6.03
2019-05-17T01:36:56.937Z,6.05
2019-05-17T01:39:37.483Z,6.08
2019-05-17T01:42:11.124Z,6.09
2019-05-17T01:44:56.785Z,6.08
2019-05-17T01:47:32.819Z,6.08
2019-05-17T01:50:09.100Z,6.11
2019-05-17T01:52:53.148Z,6.14
2019-05-17T01:55:31.766Z,6.01
2019-05-17T01:58:07.249Z,5.88
2019-05-17T02:00:47.724Z,5.81
2019-05-17T02:03:22.642Z,5.84
2019-05-17T02:05:56.839Z,5.76
2019-05-17T02:08:37.243Z,5.75
2019-05-17T02:11:20.044Z,5.72
2019-05-17T02:13:59.128Z,5.73
2019-05-17T02:16:34.308Z,5.66
2019-05-17T02:19:11.104Z,5.74
2019-05-17T02:22:10.962Z,5.67
2019-05-17T02:24:40.742Z,5.70
2019-05-17T02:27:14.142Z,5.69
2019-05-17T02:30:07.771Z,5.60
2019-05-17T02:33:15.211Z,5.63
2019-05-17T02:35:58.182Z,5.55
2019-05-17T02:38:34.397Z,5.52
2019-05-17T02:41:15.405Z,5.44
2019-05-17T02:43:56.413Z,5.47
2019-05-17T02:46:33.539Z,5.44
2019-05-17T02:49:35.786Z,5.43
2019-05-17T02:52:12.327Z,5.43
2019-05-17T02:54:55.935Z,5.44
2019-05-17T02:57:34.876Z,5.37
2019-05-17T03:02:58.970Z,5.39
2019-05-17T03:05:34.031Z,5.31
2019-05-17T03:08:15.306Z,5.40
2019-05-17T03:11:13.194Z,5.38
2019-05-17T03:13:54.517Z,5.36
2019-05-17T03:16:33.568Z,5.31
2019-05-17T03:19:32.779Z,5.34
2019-05-17T03:22:13.326Z,5.29
2019-05-17T03:25:07.434Z,5.17
2019-05-17T03:27:57.197Z,5.22
2019-05-17T03:31:16.735Z,5.19
2019-05-17T03:33:37.835Z,5.14
2019-05-17T03:36:17.534Z,5.09
2019-05-17T03:38:55.609Z,5.07
2019-05-17T03:42:12.979Z,5.11
2019-05-17T03:44:57.208Z,5.11
2019-05-17T03:47:38.968Z,5.14
2019-05-17T03:50:38.208Z,5.14
2019-05-17T03:53:52.916Z,5.13
2019-05-17T03:56:56.038Z,5.18
2019-05-17T04:01:07.725Z,5.10
2019-05-17T04:04:29.234Z,5.11
2019-05-17T04:07:13.038Z,5.15
2019-05-17T04:09:48.804Z,5.23
2019-05-17T04:12:26.068Z,5.30
2019-05-17T04:15:13.487Z,5.43
2019-05-17T04:18:04.770Z,5.43
2019-05-17T04:22:24.995Z,5.44
2019-05-17T04:25:29.214Z,5.47
2019-05-17T04:28:23.035Z,5.59
2019-05-17T04:31:24.023Z,5.65
2019-05-17T04:34:13.533Z,5.76
2019-05-17T04:36:47.391Z,5.83
2019-05-17T04:39:32.657Z,5.95
2019-05-17T04:43:13.572Z,5.97
2019-05-17T04:45:53.788Z,6.08
2019-05-17T04:48:32.698Z,6.21
2019-05-17T04:51:32.547Z,6.34
2019-05-17T04:54:05.091Z,6.42
2019-05-17T04:57:23.424Z,6.62
2019-05-17T05:14:26.214Z,10.48
2019-05-17T05:17:02.373Z,10.97
2019-05-17T05:19:35.808Z,10.98
2019-05-17T05:22:27.285Z,10.94
2019-05-17T05:25:03.271Z,10.92
2019-05-17T05:28:43.077Z,10.91
2019-05-17T05:31:23.131Z,11.41
2019-05-17T05:34:21.459Z,11.94
2019-05-17T05:36:56.004Z,11.75
2019-05-17T05:39:36.852Z,11.73
2019-05-17T05:42:14.007Z,12.36
2019-05-17T05:44:55.482Z,11.66
2019-05-17T05:47:27.895Z,11.78
2019-05-17T05:50:08.259Z,11.95
2019-05-17T05:52:58.032Z,12.23
2019-05-17T05:55:32.191Z,11.77
2019-05-17T06:06:26.911Z,12.31
2019-05-17T06:08:58.069Z,12.32
2019-05-17T06:11:46.045Z,12.92
2019-05-17T06:14:21.598Z,12.67
2019-05-17T06:16:53.099Z,13.00
2019-05-17T06:19:31.533Z,12.50
2019-05-17T06:22:06.934Z,12.84
2019-05-17T06:24:38.174Z,12.71
2019-05-17T06:27:12.205Z,12.54
2019-05-17T06:30:12.297Z,12.92
2019-05-17T06:32:53.430Z,12.84
2019-05-17T06:35:42.372Z,13.46
2019-05-17T06:38:22.496Z,13.30
2019-05-17T06:41:05.128Z,13.21
2019-05-17T06:44:07.770Z,13.66
2019-05-17T06:46:57.280Z,13.20
2019-05-17T06:49:35.948Z,13.16
2019-05-17T06:52:27.933Z,12.93
2019-05-17T06:55:26.139Z,13.24
2019-05-17T06:58:04.825Z,13.56
2019-05-17T07:02:52.782Z,13.10
2019-05-17T07:05:42.893Z,13.40
2019-05-17T07:08:30.461Z,13.34
2019-05-17T07:11:10.126Z,13.57
2019-05-17T07:17:15.536Z,13.90
2019-05-17T07:19:46.610Z,14.13
2019-05-17T07:22:21.246Z,13.98
2019-05-17T07:24:52.736Z,14.08
2019-05-17T07:27:41.125Z,14.19
2019-05-17T07:30:01.221Z,14.30
2019-05-17T07:32:32.531Z,14.71
2019-05-17T07:35:10.405Z,14.53
2019-05-17T07:37:39.702Z,14.71
2019-05-17T07:40:13.397Z,14.21
2019-05-17T07:42:51.076Z,14.03
2019-05-17T07:45:24.599Z,14.72
2019-05-17T07:48:05.087Z,14.90
2019-05-17T07:50:33.902Z,14.29
2019-05-17T07:53:05.515Z,14.24
2019-05-17T07:55:36.821Z,14.38
2019-05-17T07:58:21.455Z,15.01
2019-05-17T08:00:54.399Z,14.73
2019-05-17T08:03:34.210Z,14.55
2019-05-17T08:06:30.513Z,14.84
2019-05-17T08:13:46.327Z,14.71
2019-05-17T08:16:26.432Z,15.05
2019-05-17T08:19:49.651Z,15.79
2019-05-17T08:23:40.861Z,15.85
2019-05-17T08:26:13.458Z,15.78
2019-05-17T08:28:57.208Z,16.31
2019-05-17T08:31:31.226Z,16.38
2019-05-17T08:34:14.363Z,16.00
2019-05-17T08:36:52.819Z,16.18
2019-05-17T08:39:30.245Z,16.14
2019-05-17T08:42:25.737Z,15.66
2019-05-17T09:43:45.797Z,17.79
2019-05-17T09:47:33.858Z,17.90
2019-05-17T10:28:20.545Z,18.98
2019-05-17T10:31:01.989Z,18.54
2019-05-17T10:36:56.009Z,18.71
2019-05-17T10:40:02.859Z,19.48
2019-05-17T10:43:12.750Z,19.06
2019-05-17T10:46:40.691Z,19.39
2019-05-17T10:49:24.418Z,18.98
2019-05-17T10:52:23.368Z,19.67
2019-05-17T10:55:42.161Z,19.89
2019-05-17T10:58:49.432Z,19.41
2019-05-17T11:03:20.987Z,19.50
2019-05-17T11:05:43.409Z,19.52
2019-05-17T11:08:52.397Z,19.52
2019-05-17T11:11:43.985Z,19.19
2019-05-17T11:14:23.469Z,19.80
2019-05-17T11:17:32.921Z,19.30
2019-05-17T11:21:27.324Z,19.97
2019-05-17T11:27:39.232Z,20.01
2019-05-17T11:50:29.304Z,20.34
2019-05-17T12:02:05.114Z,21.16
2019-05-17T12:06:21.932Z,20.48
2019-05-17T12:21:59.338Z,20.77
2019-05-17T12:35:11.236Z,20.14
2019-05-17T12:42:47.811Z,21.45
2019-05-17T12:47:04.477Z,21.53
2019-05-17T12:52:38.139Z,22.43
2019-05-17T13:05:03.698Z,22.84
2019-05-17T13:17:09.940Z,21.27
2019-05-17T13:32:08.086Z,23.04
2019-05-17T13:44:49.958Z,21.63
2019-05-17T13:49:01.393Z,21.44
2019-05-17T14:01:34.045Z,20.73
2019-05-17T14:11:27.805Z,22.24
2019-05-17T14:14:51.594Z,23.05
2019-05-17T14:18:11.694Z,23.32
2019-05-17T14:29:57.502Z,22.23
2019-05-17T14:33:21.908Z,22.28
2019-05-17T14:47:46.463Z,20.94
2019-05-17T14:53:15.786Z,20.43
2019-05-17T14:55:55.729Z,20.41
2019-05-17T14:58:59.172Z,20.50
2019-05-17T15:06:59.464Z,20.50
2019-05-17T15:10:12.588Z,20.21
2019-05-17T15:16:47.211Z,19.57
2019-05-17T15:19:33.967Z,19.20
2019-05-17T15:33:12.857Z,17.20
2019-05-17T15:36:34.261Z,16.64
2019-05-17T15:39:25.015Z,16.31
2019-05-17T15:42:23.555Z,15.58
2019-05-17T15:44:55.866Z,15.29
2019-05-17T15:47:43.434Z,14.74
2019-05-17T15:50:18.855Z,14.53
2019-05-17T15:52:54.305Z,14.55
2019-05-17T15:55:33.881Z,14.58
2019-05-17T15:58:10.232Z,14.48
2019-05-17T16:00:58.695Z,14.54
2019-05-17T16:03:33.837Z,14.44
2019-05-17T16:07:02.344Z,14.40
2019-05-17T16:09:55.975Z,14.42
2019-05-17T16:12:35.872Z,14.42
2019-05-17T16:15:26.524Z,14.47
2019-05-17T16:18:06.538Z,14.42
2019-05-17T16:20:44.485Z,14.32
2019-05-17T16:23:21.261Z,14.33
2019-05-17T16:25:54.225Z,14.44
2019-05-17T16:28:34.280Z,14.53
2019-05-17T16:31:07.512Z,14.53
2019-05-17T16:34:18.121Z,14.55
2019-05-17T16:36:56.311Z,14.59
2019-05-17T16:39:59.723Z,14.61
2019-05-17T16:42:36.387Z,14.68
2019-05-17T16:45:34.360Z,14.81
2019-05-17T16:48:19.002Z,14.93
2019-05-17T16:51:12.773Z,14.94
2019-05-17T16:53:53.727Z,14.95
2019-05-17T16:56:36.877Z,15.09
2019-05-17T17:03:08.983Z,15.30
2019-05-17T17:05:57.186Z,15.26
2019-05-17T17:08:21.025Z,15.03
2019-05-17T17:19:02.662Z,15.03
2019-05-17T17:21:34.544Z,15.02
2019-05-17T17:24:05.486Z,15.05
2019-05-17T17:26:36.033Z,15.07
2019-05-17T17:29:09.923Z,15.06
2019-05-17T17:31:40.777Z,15.05
2019-05-17T17:34:11.414Z,15.01
2019-05-17T17:36:42.337Z,14.93
2019-05-17T17:39:13.030Z,15.04
2019-05-17T17:41:43.769Z,14.86
2019-05-17T17:44:14.284Z,14.86
2019-05-17T17:46:45.024Z,14.87
2019-05-17T17:49:17.910Z,14.90
2019-05-17T17:51:48.488Z,14.95
2019-05-17T17:54:19.342Z,14.98
2019-05-17T17:56:50.060Z,14.99
2019-05-17T17:59:20.851Z,15.00
2019-05-17T18:01:51.304Z,14.96
2019-05-17T18:04:23.368Z,14.85
2019-05-17T18:06:54.156Z,14.80
2019-05-17T18:09:26.019Z,14.64
2019-05-17T18:11:58.560Z,14.52
2019-05-17T18:14:29.500Z,14.49
2019-05-17T18:17:00.951Z,14.46
2019-05-17T18:19:33.222Z,14.46
2019-05-17T18:22:05.651Z,14.47
2019-05-17T18:24:39.169Z,14.57
2019-05-17T18:27:13.235Z,14.50
2019-05-17T18:29:44.470Z,14.48
2019-05-17T18:32:15.094Z,14.46
2019-05-17T18:34:47.307Z,14.42
2019-05-17T18:37:18.047Z,14.48
2019-05-17T18:39:49.575Z,14.45
2019-05-17T18:42:20.539Z,14.44
2019-05-17T18:44:51.989Z,14.38
2019-05-17T18:47:22.832Z,14.33
2019-05-17T18:49:53.849Z,14.31
2019-05-17T18:52:24.419Z,14.32
2019-05-17T18:54:56.305Z,14.27
2019-05-17T18:57:33.032Z,14.30
2019-05-17T19:13:32.438Z,14.00
2019-05-17T19:16:04.925Z,13.81
2019-05-17T19:18:35.070Z,13.75
2019-05-17T19:21:05.660Z,13.71
2019-05-17T19:23:36.074Z,13.60
2019-05-17T19:26:07.394Z,13.48
2019-05-17T19:28:37.775Z,13.39
2019-05-17T19:31:08.392Z,13.31
2019-05-17T19:33:38.775Z,13.24
2019-05-17T19:36:09.240Z,13.18
2019-05-17T19:38:39.654Z,13.17
2019-05-17T19:41:09.983Z,13.08
2019-05-17T19:43:40.789Z,12.98
2019-05-17T19:46:11.085Z,12.97
2019-05-17T19:48:41.553Z,12.84
2019-05-17T19:51:11.856Z,12.73
2019-05-17T19:53:42.351Z,12.64
2019-05-17T19:56:12.865Z,12.55
2019-05-17T19:58:43.308Z,12.56
2019-05-17T20:01:14.177Z,12.55
2019-05-17T20:03:44.491Z,12.58
2019-05-17T20:06:14.855Z,12.60
2019-05-17T20:08:45.180Z,12.69
2019-05-17T20:11:15.730Z,12.66
2019-05-17T20:13:46.189Z,12.75
2019-05-17T20:16:16.554Z,12.74
2019-05-17T20:18:47.119Z,12.79
2019-05-17T20:21:17.463Z,12.81
2019-05-17T20:23:47.794Z,12.78
2019-05-17T20:26:18.185Z,12.79
2019-05-17T20:28:48.538Z,12.75
2019-05-17T20:31:18.942Z,12.78
2019-05-17T20:33:49.387Z,12.79
2019-05-17T20:36:19.764Z,12.84
2019-05-17T20:38:50.114Z,12.88
2019-05-17T20:41:20.377Z,12.85
2019-05-17T20:43:50.662Z,12.82
2019-05-17T21:02:49.076Z,13.19
2019-05-17T21:05:20.910Z,13.16
2019-05-17T21:07:51.834Z,13.12
2019-05-17T21:10:22.080Z,13.14
2019-05-17T21:12:52.631Z,13.11
2019-05-17T21:15:23.158Z,13.09
2019-05-17T21:17:53.432Z,13.22
2019-05-17T21:20:23.800Z,13.18
2019-05-17T21:22:54.123Z,13.24
2019-05-17T21:25:24.578Z,13.17
2019-05-17T21:27:54.870Z,13.15
2019-05-17T21:30:25.286Z,13.15
2019-05-17T21:32:55.695Z,13.25
2019-05-17T21:35:26.022Z,13.29
2019-05-17T21:37:56.404Z,13.33
2019-05-17T21:40:27.085Z,13.26
2019-05-17T21:42:57.582Z,13.20
2019-05-17T21:45:27.912Z,13.08
2019-05-17T21:47:58.601Z,13.04
2019-05-17T21:50:28.893Z,12.96
2019-05-17T21:52:59.388Z,12.91
2019-05-17T21:55:29.650Z,12.90
2019-05-17T21:57:59.979Z,12.88
2019-05-17T22:01:25.264Z,12.89
2019-05-17T22:03:55.770Z,12.82
2019-05-17T22:06:26.240Z,12.80
2019-05-17T22:08:56.690Z,12.82
2019-05-17T22:11:27.248Z,12.83
2019-05-17T22:13:57.676Z,12.81
2019-05-17T22:16:28.140Z,12.77
2019-05-17T22:18:58.529Z,12.76
2019-05-17T22:21:28.817Z,12.72
2019-05-17T22:23:59.418Z,12.67
2019-05-17T22:26:29.691Z,12.65
2019-05-17T22:29:00.121Z,12.61
2019-05-17T22:31:30.484Z,12.63
2019-05-17T22:34:01.115Z,12.54
2019-05-17T22:36:31.435Z,12.53
2019-05-17T22:39:01.958Z,12.52
2019-05-17T22:41:32.291Z,12.52
2019-05-17T22:44:03.440Z,12.49
2019-05-17T22:46:36.444Z,12.49
2019-05-17T22:49:06.089Z,12.44
2019-05-17T22:51:36.419Z,12.41
2019-05-17T22:54:06.969Z,12.39
2019-05-17T22:56:37.424Z,12.38
2019-05-17T23:02:45.478Z,12.39
2019-05-17T23:05:16.119Z,12.34
2019-05-17T23:07:46.895Z,12.36
2019-05-17T23:10:17.712Z,12.34
2019-05-17T23:12:48.306Z,12.33
2019-05-17T23:15:19.038Z,12.34
2019-05-17T23:17:49.559Z,12.30
2019-05-17T23:20:20.060Z,12.28
2019-05-17T23:22:50.406Z,12.29
2019-05-17T23:25:20.819Z,12.33
2019-05-17T23:27:51.313Z,12.28
2019-05-17T23:30:21.825Z,12.23
2019-05-17T23:32:52.180Z,12.22
2019-05-17T23:35:22.841Z,12.22
2019-05-17T23:37:53.300Z,12.04
2019-05-17T23:40:23.954Z,12.02
2019-05-17T23:42:54.345Z,12.01
2019-05-17T23:45:24.780Z,12.12
2019-05-17T23:47:55.183Z,12.07
2019-05-17T23:50:25.709Z,12.09
2019-05-17T23:52:56.181Z,12.09
2019-05-17T23:55:26.910Z,12.09
2019-05-17T23:57:57.197Z,12.09
